EKSB/SGD METAR and TAF weather

Enter ICAO airport designator
Station Type Date Time Source
EKSB METAR 2022/06/26 08:50 UTC NOAA

EKSB 260850Z AUTO 12010KT 9999 NCD 24/19 Q1013


Station Type Date Time Source
EKSB Decoded METAR 2022/06/26 08:50 UTC NOAA

Soenderborg Lufthavn, Denmark (EKSB) 54-58N 009-47E 14M
Jun 26, 2022 - 04:50 AM EDT / 2022.06.26 0850 UTC
Wind: from the ESE (120 degrees) at 12 MPH (10 KT):0
Visibility: greater than 7 mile(s):0
Temperature: 75 F (24 C)
Dew Point: 66 F (19 C)
Relative Humidity: 73%
Pressure (altimeter): 29.91 in. Hg (1013 hPa)
ob: EKSB 260850Z AUTO 12010KT 9999 NCD 24/19 Q1013
cycle: 9

Station Type Date Time Source
EKSB TAF 2016/01/27 09:03 UTC NOAA

TAF TAF EKSB 270856Z 2709/2721 23022KT 5000 -RA BR BKN008
TEMPO 2709/2721 24025G40KT 2000 RADZ BKN004

Example: see airport list